createdAt,value
2024-01-11T00:01:28.900Z,-2.16
2024-01-11T00:04:16.209Z,-2.20
2024-01-11T00:07:03.164Z,-2.23
2024-01-11T00:09:50.020Z,-2.26
2024-01-11T00:12:36.849Z,-2.26
2024-01-11T00:15:23.750Z,-2.27
2024-01-11T00:18:10.806Z,-2.32
2024-01-11T00:20:57.788Z,-2.31
2024-01-11T00:23:44.728Z,-2.33
2024-01-11T00:26:31.633Z,-2.35
2024-01-11T00:29:18.629Z,-2.38
2024-01-11T00:32:05.711Z,-2.40
2024-01-11T00:34:53.560Z,-2.39
2024-01-11T00:37:40.789Z,-2.40
2024-01-11T00:40:27.643Z,-2.42
2024-01-11T00:43:14.514Z,-2.43
2024-01-11T00:46:01.336Z,-2.42
2024-01-11T00:48:48.224Z,-2.45
2024-01-11T00:51:35.141Z,-2.46
2024-01-11T00:54:22.025Z,-2.48
2024-01-11T00:57:08.930Z,-2.46
2024-01-11T00:59:56.436Z,-2.48
2024-01-11T01:02:43.452Z,-2.48
2024-01-11T01:05:30.598Z,-2.48
2024-01-11T01:08:17.576Z,-2.50
2024-01-11T01:11:04.565Z,-2.52
2024-01-11T01:13:51.437Z,-2.54
2024-01-11T01:16:38.306Z,-2.56
2024-01-11T01:19:25.264Z,-2.57
2024-01-11T01:22:12.141Z,-2.58
2024-01-11T01:24:59.016Z,-2.60
2024-01-11T01:27:45.933Z,-2.61
2024-01-11T01:30:32.850Z,-2.63
2024-01-11T01:33:19.887Z,-2.66
2024-01-11T01:36:10.798Z,-2.66
2024-01-11T01:38:57.635Z,-2.68
2024-01-11T01:41:44.486Z,-2.68
2024-01-11T01:44:31.374Z,-2.69
2024-01-11T01:47:19.050Z,-2.72
2024-01-11T01:50:07.354Z,-2.70
2024-01-11T01:52:55.322Z,-2.71
2024-01-11T01:55:42.219Z,-2.73
2024-01-11T01:58:30.390Z,-2.76
2024-01-11T02:01:17.383Z,-2.78
2024-01-11T02:04:04.473Z,-2.79
2024-01-11T02:06:53.182Z,-2.84
2024-01-11T02:09:41.214Z,-2.85
2024-01-11T02:12:29.928Z,-2.88
2024-01-11T02:15:16.899Z,-2.88
2024-01-11T02:18:04.011Z,-2.88
2024-01-11T02:20:51.101Z,-2.90
2024-01-11T02:23:46.815Z,-2.91
2024-01-11T02:26:34.414Z,-2.94
2024-01-11T02:29:21.343Z,-2.96
2024-01-11T02:32:09.501Z,-2.97
2024-01-11T02:34:56.944Z,-2.98
2024-01-11T02:37:44.237Z,-3.00
2024-01-11T02:40:31.059Z,-3.00
2024-01-11T02:43:17.871Z,-3.04
2024-01-11T02:46:04.860Z,-3.05
2024-01-11T02:48:52.785Z,-3.08
2024-01-11T02:51:39.855Z,-3.11
2024-01-11T02:54:26.721Z,-3.12
2024-01-11T02:57:13.633Z,-3.14
2024-01-11T03:00:00.541Z,-3.13
2024-01-11T03:02:47.424Z,-3.15
2024-01-11T03:05:34.438Z,-3.17
2024-01-11T03:08:21.523Z,-3.17
2024-01-11T03:11:08.476Z,-3.17
2024-01-11T03:13:56.632Z,-3.16
2024-01-11T03:16:43.816Z,-3.18
2024-01-11T03:19:30.743Z,-3.19
2024-01-11T03:22:17.609Z,-3.20
2024-01-11T03:25:04.800Z,-3.22
2024-01-11T03:27:51.665Z,-3.22
2024-01-11T03:30:38.537Z,-3.25
2024-01-11T03:33:25.569Z,-3.26
2024-01-11T03:36:12.969Z,-3.27
2024-01-11T03:39:00.012Z,-3.30
2024-01-11T03:41:46.946Z,-3.31
2024-01-11T03:44:33.921Z,-3.31
2024-01-11T03:47:20.887Z,-3.32
2024-01-11T03:50:08.126Z,-3.36
2024-01-11T03:52:55.082Z,-3.38
2024-01-11T03:55:42.044Z,-3.39
2024-01-11T03:58:28.898Z,-3.42
2024-01-11T04:01:15.850Z,-3.45
2024-01-11T04:04:02.743Z,-3.46
2024-01-11T04:06:49.767Z,-3.47
2024-01-11T04:09:39.361Z,-3.45
2024-01-11T04:12:26.339Z,-3.48
2024-01-11T04:15:14.635Z,-3.50
2024-01-11T04:18:01.638Z,-3.54
2024-01-11T04:20:48.606Z,-3.54
2024-01-11T04:23:36.091Z,-3.57
2024-01-11T04:26:23.110Z,-3.58
2024-01-11T04:29:10.098Z,-3.58
2024-01-11T04:31:57.000Z,-3.62
2024-01-11T04:34:43.937Z,-3.63
2024-01-11T04:37:30.802Z,-3.62
2024-01-11T04:40:17.627Z,-3.63
2024-01-11T04:43:04.668Z,-3.65
2024-01-11T04:45:52.410Z,-3.65
2024-01-11T04:48:39.343Z,-3.65
2024-01-11T04:51:26.303Z,-3.67
2024-01-11T04:54:13.155Z,-3.69
2024-01-11T04:57:00.031Z,-3.71
2024-01-11T04:59:46.900Z,-3.71
2024-01-11T05:02:33.789Z,-3.70
2024-01-11T05:05:20.725Z,-3.71
2024-01-11T05:08:07.957Z,-3.72
2024-01-11T05:10:54.998Z,-3.75
2024-01-11T05:13:41.849Z,-3.78
2024-01-11T05:16:29.233Z,-3.80
2024-01-11T05:19:16.290Z,-3.85
2024-01-11T05:22:03.179Z,-3.87
2024-01-11T05:24:52.139Z,-3.89
2024-01-11T05:27:39.095Z,-3.93
2024-01-11T05:30:30.194Z,-3.95
2024-01-11T05:33:17.410Z,-3.99
2024-01-11T05:36:04.740Z,-4.01
2024-01-11T05:38:51.596Z,-4.02
2024-01-11T05:41:44.267Z,-4.01
2024-01-11T05:44:31.185Z,-4.02
2024-01-11T05:47:18.137Z,-4.02
2024-01-11T05:50:06.424Z,-4.03
2024-01-11T05:52:55.165Z,-4.03
2024-01-11T05:55:42.033Z,-4.03
2024-01-11T05:58:28.902Z,-4.05
2024-01-11T06:04:03.026Z,-4.06
2024-01-11T06:06:49.853Z,-4.08
2024-01-11T06:09:36.665Z,-4.09
2024-01-11T06:12:23.473Z,-4.11
2024-01-11T06:15:10.775Z,-4.13
2024-01-11T06:17:57.835Z,-4.15
2024-01-11T06:20:45.109Z,-4.14
2024-01-11T06:23:32.089Z,-4.14
2024-01-11T06:26:18.992Z,-4.18
2024-01-11T06:29:05.927Z,-4.18
2024-01-11T06:31:52.845Z,-4.20
2024-01-11T06:34:42.630Z,-4.20
2024-01-11T06:37:29.591Z,-4.21
2024-01-11T06:40:16.427Z,-4.22
2024-01-11T06:43:03.414Z,-4.23
2024-01-11T06:45:50.249Z,-4.25
2024-01-11T06:48:37.269Z,-4.27
2024-01-11T06:51:24.613Z,-4.29
2024-01-11T06:54:11.510Z,-4.31
2024-01-11T06:56:58.358Z,-4.32
2024-01-11T06:59:47.478Z,-4.33
2024-01-11T07:02:34.466Z,-4.33
2024-01-11T07:05:21.441Z,-4.33
2024-01-11T07:08:08.475Z,-4.37
2024-01-11T07:10:55.315Z,-4.38
2024-01-11T07:13:42.172Z,-4.40
2024-01-11T07:16:29.042Z,-4.39
2024-01-11T07:19:16.136Z,-4.42
2024-01-11T07:22:03.060Z,-4.43
2024-01-11T07:24:49.921Z,-4.44
2024-01-11T07:27:37.245Z,-4.48
2024-01-11T07:30:24.153Z,-4.49
2024-01-11T07:33:11.946Z,-4.50
2024-01-11T07:36:00.019Z,-4.53
2024-01-11T07:38:47.154Z,-4.58
2024-01-11T07:41:34.178Z,-4.60
2024-01-11T07:44:22.014Z,-4.56
2024-01-11T07:47:09.081Z,-4.49
2024-01-11T07:49:56.172Z,-4.43
2024-01-11T07:52:43.057Z,-4.37
2024-01-11T07:55:29.938Z,-4.31
2024-01-11T07:58:16.784Z,-4.25
2024-01-11T08:01:03.916Z,-4.21
2024-01-11T08:03:53.414Z,-4.17
2024-01-11T08:06:40.613Z,-4.14
2024-01-11T08:09:27.552Z,-4.10
2024-01-11T08:12:15.633Z,-4.08
2024-01-11T08:15:02.595Z,-4.07
2024-01-11T08:17:49.905Z,-4.06
2024-01-11T08:20:36.868Z,-4.06
2024-01-11T08:23:24.919Z,-4.04
2024-01-11T08:26:17.398Z,-4.01
2024-01-11T08:29:06.061Z,-3.98
2024-01-11T08:31:53.111Z,-3.94
2024-01-11T08:34:40.397Z,-3.91
2024-01-11T08:37:27.349Z,-3.85
2024-01-11T08:40:14.345Z,-3.82
2024-01-11T08:43:01.237Z,-3.77
2024-01-11T08:45:48.111Z,-3.75
2024-01-11T08:48:35.119Z,-3.71
2024-01-11T08:51:22.044Z,-3.71
2024-01-11T08:54:10.719Z,-3.69
2024-01-11T08:56:57.676Z,-3.67
2024-01-11T08:59:45.457Z,-3.65
2024-01-11T09:02:32.473Z,-3.59
2024-01-11T09:05:19.466Z,-3.53
2024-01-11T09:08:08.224Z,-3.36
2024-01-11T09:10:55.265Z,-3.20
2024-01-11T09:13:42.758Z,-3.13
2024-01-11T09:16:29.989Z,-3.10
2024-01-11T09:19:17.254Z,-3.08
2024-01-11T09:22:04.378Z,-3.06
2024-01-11T09:24:51.558Z,-3.05
2024-01-11T09:27:38.409Z,-3.04
2024-01-11T09:30:25.301Z,-3.03
2024-01-11T09:33:12.567Z,-3.03
2024-01-11T09:35:59.547Z,-3.02
2024-01-11T09:38:46.487Z,-3.00
2024-01-11T09:41:33.983Z,-2.99
2024-01-11T09:44:21.210Z,-2.99
2024-01-11T09:47:11.513Z,-2.98
2024-01-11T09:50:00.293Z,-2.94
2024-01-11T09:52:49.489Z,-2.92
2024-01-11T09:55:37.758Z,-2.89
2024-01-11T09:58:25.376Z,-2.88
2024-01-11T10:01:13.511Z,-2.86
2024-01-11T10:04:02.293Z,-2.83
2024-01-11T10:06:50.061Z,-2.81
2024-01-11T10:09:37.757Z,-2.79
2024-01-11T10:12:26.469Z,-2.78
2024-01-11T10:15:14.738Z,-2.75
2024-01-11T10:18:02.135Z,-2.72
2024-01-11T10:20:49.949Z,-2.70
2024-01-11T10:23:37.690Z,-2.66
2024-01-11T10:26:25.478Z,-2.66
2024-01-11T10:29:14.310Z,-2.62
2024-01-11T10:32:01.467Z,-2.61
2024-01-11T10:34:50.124Z,-2.59
2024-01-11T10:37:39.863Z,-2.58
2024-01-11T10:40:27.193Z,-2.55
2024-01-11T10:43:16.727Z,-2.53
2024-01-11T10:46:05.526Z,-2.52
2024-01-11T10:48:57.416Z,-2.49
2024-01-11T10:51:48.003Z,-2.47
2024-01-11T10:54:35.822Z,-2.44
2024-01-11T10:57:23.466Z,-2.40
2024-01-11T11:00:12.998Z,-2.38
2024-01-11T11:03:02.112Z,-2.35
2024-01-11T11:05:51.653Z,-2.32
2024-01-11T11:08:39.441Z,-2.28
2024-01-11T11:11:26.687Z,-2.25
2024-01-11T11:14:17.148Z,-2.21
2024-01-11T11:17:06.753Z,-2.18
2024-01-11T11:19:54.809Z,-2.14
2024-01-11T11:22:42.162Z,-2.12
2024-01-11T11:25:31.078Z,-2.07
2024-01-11T11:28:19.468Z,-2.05
2024-01-11T11:31:06.366Z,-2.04
2024-01-11T11:33:53.805Z,-1.99
2024-01-11T11:36:42.933Z,-1.95
2024-01-11T11:39:29.827Z,-1.92
2024-01-11T11:42:16.691Z,-1.87
2024-01-11T11:45:04.557Z,-1.66
2024-01-11T11:47:51.549Z,-1.44
2024-01-11T11:50:38.572Z,-1.20
2024-01-11T11:53:25.587Z,-1.12
2024-01-11T11:56:13.687Z,-1.12
2024-01-11T11:59:01.029Z,-1.12
2024-01-11T12:01:48.035Z,-1.13
2024-01-11T12:04:34.939Z,-1.10
2024-01-11T12:07:23.906Z,-1.09
2024-01-11T12:10:11.229Z,-1.06
2024-01-11T12:12:58.306Z,-1.04
2024-01-11T12:15:46.568Z,-1.02
2024-01-11T12:18:33.635Z,-0.98
2024-01-11T12:21:21.259Z,-0.94
2024-01-11T12:24:08.378Z,-0.91
2024-01-11T12:26:57.057Z,-0.86
2024-01-11T12:29:52.506Z,-0.81
2024-01-11T12:32:44.380Z,-0.79
2024-01-11T12:35:32.226Z,-0.74
2024-01-11T12:38:19.481Z,-0.68
2024-01-11T12:41:07.295Z,-0.64
2024-01-11T12:43:54.497Z,-0.61
2024-01-11T12:46:42.176Z,-0.58
2024-01-11T12:49:29.208Z,-0.56
2024-01-11T12:52:20.726Z,-0.53
2024-01-11T12:55:10.082Z,-0.47
2024-01-11T12:58:06.773Z,-0.43
2024-01-11T13:00:53.685Z,-0.39
2024-01-11T13:03:45.426Z,-0.35
2024-01-11T13:06:33.096Z,-0.32
2024-01-11T13:09:20.102Z,-0.28
2024-01-11T13:12:07.285Z,-0.24
2024-01-11T13:14:54.299Z,-0.22
2024-01-11T13:17:41.279Z,-0.20
2024-01-11T13:20:30.025Z,-0.17
2024-01-11T13:23:21.616Z,-0.15
2024-01-11T13:26:09.401Z,-0.12
2024-01-11T13:28:58.309Z,-0.09
2024-01-11T13:31:45.276Z,-0.06
2024-01-11T13:34:32.336Z,-0.03
2024-01-11T13:37:19.203Z,-0.03
2024-01-11T13:40:06.639Z,-0.04
2024-01-11T13:42:54.011Z,0.02
2024-01-11T13:45:40.947Z,0.04
2024-01-11T13:48:27.871Z,0.05
2024-01-11T13:51:16.435Z,0.05
2024-01-11T13:54:04.146Z,0.08
2024-01-11T13:56:55.901Z,0.10
2024-01-11T13:59:42.762Z,0.12
2024-01-11T14:02:29.655Z,0.14
2024-01-11T14:05:19.239Z,0.15
2024-01-11T14:08:08.787Z,0.16
2024-01-11T14:10:55.943Z,0.20
2024-01-11T14:13:43.529Z,0.23
2024-01-11T14:16:30.513Z,0.24
2024-01-11T14:19:17.555Z,0.28
2024-01-11T14:22:04.658Z,0.33
2024-01-11T14:24:51.556Z,0.36
2024-01-11T14:27:38.776Z,0.43
2024-01-11T14:30:28.752Z,0.43
2024-01-11T14:33:15.792Z,0.51
2024-01-11T14:36:02.948Z,0.57
2024-01-11T14:38:50.988Z,0.62
2024-01-11T14:41:38.638Z,0.64
2024-01-11T14:44:25.585Z,0.65
2024-01-11T14:47:12.683Z,0.64
2024-01-11T14:50:00.358Z,0.61
2024-01-11T14:52:48.418Z,0.59
2024-01-11T14:55:36.921Z,0.57
2024-01-11T14:58:23.819Z,0.54
2024-01-11T15:01:10.775Z,0.52
2024-01-11T15:04:02.577Z,0.48
2024-01-11T15:06:49.957Z,0.48
2024-01-11T15:09:39.121Z,0.44
2024-01-11T15:12:28.015Z,0.43
2024-01-11T15:15:15.029Z,0.42
2024-01-11T15:18:01.997Z,0.38
2024-01-11T15:20:49.056Z,0.37
2024-01-11T15:23:36.142Z,0.38
2024-01-11T15:26:23.124Z,0.37
2024-01-11T15:29:10.170Z,0.36
2024-01-11T15:31:57.151Z,0.33
2024-01-11T15:34:44.072Z,0.34
2024-01-11T15:37:33.489Z,0.33
2024-01-11T15:40:20.342Z,0.33
2024-01-11T15:43:08.351Z,0.31
2024-01-11T15:45:55.337Z,0.30
2024-01-11T15:48:45.719Z,0.30
2024-01-11T15:51:32.636Z,0.29
2024-01-11T15:54:21.596Z,0.29
2024-01-11T15:57:09.119Z,0.28
2024-01-11T15:59:56.037Z,0.26
2024-01-11T16:02:43.943Z,0.23
2024-01-11T16:05:31.294Z,0.23
2024-01-11T16:08:18.248Z,0.27
2024-01-11T16:11:05.171Z,0.26
2024-01-11T16:13:54.636Z,0.28
2024-01-11T16:16:45.199Z,0.29
2024-01-11T16:19:34.423Z,0.31
2024-01-11T16:22:21.524Z,0.33
2024-01-11T16:25:08.641Z,0.35
2024-01-11T16:27:55.612Z,0.36
2024-01-11T16:30:43.112Z,0.37
2024-01-11T16:33:30.895Z,0.38
2024-01-11T16:36:17.872Z,0.37
2024-01-11T16:41:56.628Z,0.38
2024-01-11T16:44:43.701Z,0.38
2024-01-11T16:47:37.026Z,0.37
2024-01-11T16:50:25.004Z,0.37
2024-01-11T16:53:12.281Z,0.37
2024-01-11T16:56:01.927Z,0.37
2024-01-11T16:58:51.655Z,0.37
2024-01-11T17:01:41.118Z,0.37
2024-01-11T17:04:28.514Z,0.36
2024-01-11T17:07:15.413Z,0.37
2024-01-11T17:10:03.192Z,0.37
2024-01-11T17:12:50.106Z,0.37
2024-01-11T17:15:37.013Z,0.37
2024-01-11T17:18:24.314Z,0.37
2024-01-11T17:21:11.508Z,0.36
2024-01-11T17:23:58.416Z,0.36
2024-01-11T17:26:45.447Z,0.35
2024-01-11T17:29:32.350Z,0.37
2024-01-11T17:32:19.270Z,0.37
2024-01-11T17:35:07.243Z,0.36
2024-01-11T17:37:54.208Z,0.35
2024-01-11T17:40:41.396Z,0.36
2024-01-11T17:43:31.034Z,0.36
2024-01-11T17:46:27.366Z,0.36
2024-01-11T17:49:15.966Z,0.37
2024-01-11T17:52:03.004Z,0.36
2024-01-11T17:54:50.067Z,0.36
2024-01-11T17:57:37.864Z,0.35
2024-01-11T18:00:24.942Z,0.34
2024-01-11T18:03:13.066Z,0.34
2024-01-11T18:06:00.017Z,0.35
2024-01-11T18:08:47.256Z,0.34
2024-01-11T18:11:34.251Z,0.34
2024-01-11T18:14:21.193Z,0.35
2024-01-11T18:17:11.004Z,0.36
2024-01-11T18:19:57.936Z,0.37
2024-01-11T18:22:44.777Z,0.37
2024-01-11T18:25:31.713Z,0.37
2024-01-11T18:28:18.612Z,0.38
2024-01-11T18:31:05.565Z,0.40
2024-01-11T18:33:53.281Z,0.41
2024-01-11T18:36:45.058Z,0.40
2024-01-11T18:39:32.025Z,0.42
2024-01-11T18:42:20.685Z,0.42
2024-01-11T18:45:08.278Z,0.40
2024-01-11T18:47:55.325Z,0.41
2024-01-11T18:50:42.382Z,0.38
2024-01-11T18:53:29.810Z,0.36
2024-01-11T18:56:17.050Z,0.36
2024-01-11T18:59:04.626Z,0.34
2024-01-11T19:01:51.553Z,0.34
2024-01-11T19:04:38.510Z,0.32
2024-01-11T19:07:25.392Z,0.31
2024-01-11T19:10:12.393Z,0.29
2024-01-11T19:12:59.354Z,0.29
2024-01-11T19:15:49.665Z,0.29
2024-01-11T19:18:36.659Z,0.29
2024-01-11T19:21:23.697Z,0.28
2024-01-11T19:24:10.649Z,0.27
2024-01-11T19:27:00.647Z,0.25
2024-01-11T19:29:47.670Z,0.25
2024-01-11T19:32:36.271Z,0.26
2024-01-11T19:35:23.314Z,0.24
2024-01-11T19:38:10.380Z,0.22
2024-01-11T19:40:57.379Z,0.21
2024-01-11T19:43:47.296Z,0.21
2024-01-11T19:46:34.761Z,0.19
2024-01-11T19:49:22.011Z,0.19
2024-01-11T19:52:08.985Z,0.18
2024-01-11T19:54:55.949Z,0.18
2024-01-11T19:57:43.078Z,0.19
2024-01-11T20:00:29.970Z,0.17
2024-01-11T20:03:16.914Z,0.16
2024-01-11T20:06:04.193Z,0.14
2024-01-11T20:08:51.502Z,0.12
2024-01-11T20:11:40.158Z,0.12
2024-01-11T20:14:28.394Z,0.09
2024-01-11T20:17:16.575Z,0.09
2024-01-11T20:20:04.843Z,0.07
2024-01-11T20:22:51.905Z,0.06
2024-01-11T20:25:38.754Z,0.06
2024-01-11T20:28:25.704Z,0.06
2024-01-11T20:31:13.292Z,0.07
2024-01-11T20:34:04.022Z,0.08
2024-01-11T20:36:51.070Z,0.07
2024-01-11T20:39:38.884Z,0.08
2024-01-11T20:42:25.902Z,0.05
2024-01-11T20:45:12.780Z,0.03
2024-01-11T20:47:59.917Z,0.03
2024-01-11T20:50:48.209Z,0.01
2024-01-11T20:53:35.137Z,-0.01
2024-01-11T20:56:22.193Z,-0.01
2024-01-11T20:59:09.131Z,-0.01
2024-01-11T21:01:56.359Z,0.01
2024-01-11T21:04:43.335Z,0.03
2024-01-11T21:07:30.197Z,0.04
2024-01-11T21:10:17.291Z,0.05
2024-01-11T21:13:04.197Z,0.06
2024-01-11T21:15:51.299Z,0.05
2024-01-11T21:18:38.275Z,0.05
2024-01-11T21:21:25.239Z,0.05
2024-01-11T21:24:12.484Z,0.04
2024-01-11T21:26:59.523Z,0.03
2024-01-11T21:29:47.551Z,0.01
2024-01-11T21:32:34.550Z,-0.02
2024-01-11T21:35:21.537Z,0.02
2024-01-11T21:38:09.382Z,0.01
2024-01-11T21:40:56.331Z,0.01
2024-01-11T21:43:43.207Z,-0.04
2024-01-11T21:46:30.206Z,-0.08
2024-01-11T21:49:19.755Z,-0.14
2024-01-11T21:52:07.535Z,-0.19
2024-01-11T21:54:54.504Z,-0.24
2024-01-11T21:57:42.907Z,-0.28
2024-01-11T22:00:31.711Z,-0.30
2024-01-11T22:03:18.602Z,-0.33
2024-01-11T22:06:05.973Z,-0.36
2024-01-11T22:08:58.336Z,-0.40
2024-01-11T22:11:45.254Z,-0.44
2024-01-11T22:14:33.451Z,-0.46
2024-01-11T22:17:20.551Z,-0.48
2024-01-11T22:20:08.266Z,-0.48
2024-01-11T22:22:55.254Z,-0.50
2024-01-11T22:25:42.126Z,-0.52
2024-01-11T22:28:29.044Z,-0.54
2024-01-11T22:31:18.273Z,-0.53
2024-01-11T22:34:05.313Z,-0.54
2024-01-11T22:36:52.467Z,-0.55
2024-01-11T22:39:39.643Z,-0.58
2024-01-11T22:42:26.571Z,-0.60
2024-01-11T22:45:13.396Z,-0.63
2024-01-11T22:48:00.320Z,-0.65
2024-01-11T22:50:47.353Z,-0.70
2024-01-11T22:53:34.409Z,-0.68
2024-01-11T22:56:21.333Z,-0.70
2024-01-11T22:59:10.736Z,-0.71
2024-01-11T23:01:57.671Z,-0.73
2024-01-11T23:04:44.686Z,-0.74
2024-01-11T23:07:31.555Z,-0.75
2024-01-11T23:10:18.642Z,-0.74
2024-01-11T23:13:05.928Z,-0.73
2024-01-11T23:15:52.803Z,-0.75
2024-01-11T23:18:43.925Z,-0.76
2024-01-11T23:21:30.955Z,-0.78
2024-01-11T23:24:17.905Z,-0.77
2024-01-11T23:27:06.931Z,-0.80
2024-01-11T23:29:53.949Z,-0.82
2024-01-11T23:32:40.983Z,-0.85
2024-01-11T23:35:28.231Z,-0.86
2024-01-11T23:38:17.604Z,-0.87
2024-01-11T23:41:04.452Z,-0.89
2024-01-11T23:43:51.511Z,-0.92
2024-01-11T23:46:38.410Z,-0.94
2024-01-11T23:49:25.366Z,-0.97
2024-01-11T23:52:12.269Z,-0.98
2024-01-11T23:54:59.209Z,-1.01
2024-01-11T23:57:46.095Z,-1.04
